sensor_id;sensor_type;location;lat;lon;timestamp;noise_LAeq;noise_LA_min;noise_LA_max;noise_LA01;noise_LA95
71030;Laerm;63723;51.436;5.976;2023-04-06T00:00:03;52.78;50.42;66.06;;
71030;Laerm;63723;51.436;5.976;2023-04-06T00:00:14;53.90;50.48;67.78;;
71030;Laerm;63723;51.436;5.976;2023-04-06T00:00:25;53.34;50.85;68.16;;
71030;Laerm;63723;51.436;5.976;2023-04-06T00:00:36;52.66;50.71;67.63;;
71030;Laerm;63723;51.436;5.976;2023-04-06T00:00:47;53.07;50.35;67.63;;
71030;Laerm;63723;51.436;5.976;2023-04-06T00:00:57;53.04;50.39;67.01;;
71030;Laerm;63723;51.436;5.976;2023-04-06T00:01:08;52.45;50.60;65.41;;
71030;Laerm;63723;51.436;5.976;2023-04-06T00:01:18;52.80;50.20;67.19;;
71030;Laerm;63723;51.436;5.976;2023-04-06T00:01:28;52.73;50.69;66.50;;
71030;Laerm;63723;51.436;5.976;2023-04-06T00:01:39;53.31;51.23;68.52;;
71030;Laerm;63723;51.436;5.976;2023-04-06T00:01:49;53.08;50.60;68.07;;
71030;Laerm;63723;51.436;5.976;2023-04-06T00:02:03;52.98;50.43;67.51;;
71030;Laerm;63723;51.436;5.976;2023-04-06T00:02:13;52.54;50.39;68.46;;
71030;Laerm;63723;51.436;5.976;2023-04-06T00:02:23;54.02;50.83;67.81;;
71030;Laerm;63723;51.436;5.976;2023-04-06T00:02:33;53.47;50.01;68.56;;
71030;Laerm;63723;51.436;5.976;2023-04-06T00:02:44;54.11;50.94;68.66;;
71030;Laerm;63723;51.436;5.976;2023-04-06T00:02:54;53.06;51.35;68.12;;
71030;Laerm;63723;51.436;5.976;2023-04-06T00:03:04;54.15;50.58;68.45;;
71030;Laerm;63723;51.436;5.976;2023-04-06T00:03:15;55.41;50.72;68.65;;
71030;Laerm;63723;51.436;5.976;2023-04-06T00:03:25;52.48;50.81;62.70;;
71030;Laerm;63723;51.436;5.976;2023-04-06T00:03:35;54.45;50.12;67.76;;
71030;Laerm;63723;51.436;5.976;2023-04-06T00:03:46;53.39;50.15;68.19;;
71030;Laerm;63723;51.436;5.976;2023-04-06T00:03:56;54.26;50.64;68.31;;
71030;Laerm;63723;51.436;5.976;2023-04-06T00:04:07;53.74;50.56;67.55;;
71030;Laerm;63723;51.436;5.976;2023-04-06T00:04:17;52.63;49.95;65.71;;
71030;Laerm;63723;51.436;5.976;2023-04-06T00:04:27;55.37;50.19;68.54;;
71030;Laerm;63723;51.436;5.976;2023-04-06T00:04:37;53.75;50.57;68.21;;
71030;Laerm;63723;51.436;5.976;2023-04-06T00:04:48;53.06;50.43;67.86;;
71030;Laerm;63723;51.436;5.976;2023-04-06T00:04:58;54.07;50.40;68.25;;
71030;Laerm;63723;51.436;5.976;2023-04-06T00:05:08;52.79;50.52;67.99;;
71030;Laerm;63723;51.436;5.976;2023-04-06T00:05:18;53.11;50.00;68.28;;
71030;Laerm;63723;51.436;5.976;2023-04-06T00:05:29;53.98;50.49;68.18;;
71030;Laerm;63723;51.436;5.976;2023-04-06T00:05:41;53.91;50.51;67.01;;
71030;Laerm;63723;51.436;5.976;2023-04-06T00:05:51;53.08;50.37;68.01;;
71030;Laerm;63723;51.436;5.976;2023-04-06T00:06:02;53.91;50.77;67.57;;
71030;Laerm;63723;51.436;5.976;2023-04-06T00:06:12;53.67;50.70;67.97;;
71030;Laerm;63723;51.436;5.976;2023-04-06T00:06:22;54.04;50.78;67.89;;
71030;Laerm;63723;51.436;5.976;2023-04-06T00:06:33;53.18;50.39;67.96;;
71030;Laerm;63723;51.436;5.976;2023-04-06T00:06:43;54.41;50.46;67.56;;
71030;Laerm;63723;51.436;5.976;2023-04-06T00:06:54;53.70;49.87;67.66;;
71030;Laerm;63723;51.436;5.976;2023-04-06T00:07:04;53.41;50.86;67.93;;
71030;Laerm;63723;51.436;5.976;2023-04-06T00:07:14;53.79;50.42;68.07;;
71030;Laerm;63723;51.436;5.976;2023-04-06T00:07:24;52.92;50.63;67.93;;
71030;Laerm;63723;51.436;5.976;2023-04-06T00:07:35;52.85;50.34;67.15;;
71030;Laerm;63723;51.436;5.976;2023-04-06T00:07:45;53.05;50.29;67.13;;
71030;Laerm;63723;51.436;5.976;2023-04-06T00:07:57;52.62;50.74;65.87;;
71030;Laerm;63723;51.436;5.976;2023-04-06T00:08:07;54.35;50.80;68.11;;
71030;Laerm;63723;51.436;5.976;2023-04-06T00:08:17;52.66;50.84;66.93;;
71030;Laerm;63723;51.436;5.976;2023-04-06T00:08:28;53.71;51.00;67.53;;
71030;Laerm;63723;51.436;5.976;2023-04-06T00:08:38;53.76;50.38;67.84;;
71030;Laerm;63723;51.436;5.976;2023-04-06T00:08:49;52.43;50.42;66.55;;
71030;Laerm;63723;51.436;5.976;2023-04-06T00:08:59;53.26;50.50;67.54;;
71030;Laerm;63723;51.436;5.976;2023-04-06T00:09:10;52.74;50.50;66.66;;
71030;Laerm;63723;51.436;5.976;2023-04-06T00:09:20;53.08;50.87;66.74;;
71030;Laerm;63723;51.436;5.976;2023-04-06T00:09:30;52.50;51.14;54.82;;
71030;Laerm;63723;51.436;5.976;2023-04-06T00:09:40;53.43;51.22;68.15;;
71030;Laerm;63723;51.436;5.976;2023-04-06T00:09:51;52.31;50.86;53.33;;
71030;Laerm;63723;51.436;5.976;2023-04-06T00:10:01;53.06;50.94;67.89;;
71030;Laerm;63723;51.436;5.976;2023-04-06T00:10:12;53.34;50.85;66.03;;
71030;Laerm;63723;51.436;5.976;2023-04-06T00:10:22;51.92;50.45;55.97;;
71030;Laerm;63723;51.436;5.976;2023-04-06T00:10:32;52.26;50.38;66.63;;
71030;Laerm;63723;51.436;5.976;2023-04-06T00:10:43;52.41;50.21;64.16;;
71030;Laerm;63723;51.436;5.976;2023-04-06T00:10:53;52.75;50.41;66.35;;
71030;Laerm;63723;51.436;5.976;2023-04-06T00:11:03;52.15;50.47;65.78;;
71030;Laerm;63723;51.436;5.976;2023-04-06T00:11:13;52.64;50.69;67.13;;
71030;Laerm;63723;51.436;5.976;2023-04-06T00:11:24;54.69;50.73;67.92;;
71030;Laerm;63723;51.436;5.976;2023-04-06T00:11:35;53.72;50.46;66.29;;
71030;Laerm;63723;51.436;5.976;2023-04-06T00:11:45;52.26;50.53;65.34;;
71030;Laerm;63723;51.436;5.976;2023-04-06T00:11:55;52.72;50.31;64.71;;
71030;Laerm;63723;51.436;5.976;2023-04-06T00:12:06;53.65;50.56;66.40;;
71030;Laerm;63723;51.436;5.976;2023-04-06T00:12:16;53.57;50.77;65.84;;
71030;Laerm;63723;51.436;5.976;2023-04-06T00:12:27;53.55;50.78;67.57;;
71030;Laerm;63723;51.436;5.976;2023-04-06T00:12:37;52.12;50.65;66.22;;
71030;Laerm;63723;51.436;5.976;2023-04-06T00:12:47;53.86;50.46;65.72;;
71030;Laerm;63723;51.436;5.976;2023-04-06T00:12:58;53.11;50.38;65.34;;
71030;Laerm;63723;51.436;5.976;2023-04-06T00:13:08;54.27;50.70;67.44;;
71030;Laerm;63723;51.436;5.976;2023-04-06T00:13:18;53.43;50.68;65.98;;
71030;Laerm;63723;51.436;5.976;2023-04-06T00:13:29;52.79;50.22;65.55;;
71030;Laerm;63723;51.436;5.976;2023-04-06T00:13:39;53.26;50.55;65.95;;
71030;Laerm;63723;51.436;5.976;2023-04-06T00:13:49;53.36;50.36;65.42;;
71030;Laerm;63723;51.436;5.976;2023-04-06T00:13:59;53.27;50.42;65.85;;
71030;Laerm;63723;51.436;5.976;2023-04-06T00:14:10;53.97;50.48;66.15;;
71030;Laerm;63723;51.436;5.976;2023-04-06T00:14:20;53.18;50.42;63.22;;
71030;Laerm;63723;51.436;5.976;2023-04-06T00:14:30;54.54;50.39;66.71;;
71030;Laerm;63723;51.436;5.976;2023-04-06T00:14:41;53.42;50.37;65.56;;
71030;Laerm;63723;51.436;5.976;2023-04-06T00:14:51;53.65;50.61;66.47;;
71030;Laerm;63723;51.436;5.976;2023-04-06T00:15:01;53.73;50.51;66.00;;
71030;Laerm;63723;51.436;5.976;2023-04-06T00:15:12;52.84;50.64;65.35;;
71030;Laerm;63723;51.436;5.976;2023-04-06T00:15:22;54.47;50.33;65.96;;
71030;Laerm;63723;51.436;5.976;2023-04-06T00:15:33;53.56;50.58;66.28;;
71030;Laerm;63723;51.436;5.976;2023-04-06T00:15:43;53.14;50.62;65.95;;
71030;Laerm;63723;51.436;5.976;2023-04-06T00:15:53;53.96;50.61;65.79;;
71030;Laerm;63723;51.436;5.976;2023-04-06T00:16:03;55.27;50.56;66.99;;
71030;Laerm;63723;51.436;5.976;2023-04-06T00:16:15;54.32;50.61;67.20;;
71030;Laerm;63723;51.436;5.976;2023-04-06T00:16:26;55.97;51.14;66.83;;
71030;Laerm;63723;51.436;5.976;2023-04-06T00:16:36;57.27;53.31;67.13;;
71030;Laerm;63723;51.436;5.976;2023-04-06T00:16:46;57.10;51.52;66.18;;
71030;Laerm;63723;51.436;5.976;2023-04-06T00:16:56;56.64;50.83;65.36;;
71030;Laerm;63723;51.436;5.976;2023-04-06T00:17:07;57.25;51.79;67.37;;
71030;Laerm;63723;51.436;5.976;2023-04-06T00:17:17;57.02;50.94;67.35;;
71030;Laerm;63723;51.436;5.976;2023-04-06T00:17:27;57.76;53.70;67.63;;
71030;Laerm;63723;51.436;5.976;2023-04-06T00:17:38;56.44;50.92;66.36;;
71030;Laerm;63723;51.436;5.976;2023-04-06T00:17:48;56.65;52.07;65.85;;
71030;Laerm;63723;51.436;5.976;2023-04-06T00:17:59;57.64;51.64;66.97;;
71030;Laerm;63723;51.436;5.976;2023-04-06T00:18:09;56.61;50.69;65.90;;
71030;Laerm;63723;51.436;5.976;2023-04-06T00:18:19;56.78;52.01;66.67;;
71030;Laerm;63723;51.436;5.976;2023-04-06T00:18:30;57.44;51.14;68.12;;
71030;Laerm;63723;51.436;5.976;2023-04-06T00:18:40;53.87;50.48;66.58;;
71030;Laerm;63723;51.436;5.976;2023-04-06T00:18:51;54.46;50.87;66.81;;
71030;Laerm;63723;51.436;5.976;2023-04-06T00:19:01;53.55;50.65;66.30;;
71030;Laerm;63723;51.436;5.976;2023-04-06T00:19:11;53.77;50.59;64.96;;
71030;Laerm;63723;51.436;5.976;2023-04-06T00:19:21;53.84;51.02;66.24;;
71030;Laerm;63723;51.436;5.976;2023-04-06T00:19:32;53.12;50.77;65.63;;
71030;Laerm;63723;51.436;5.976;2023-04-06T00:19:42;53.90;50.81;65.90;;
71030;Laerm;63723;51.436;5.976;2023-04-06T00:19:52;53.86;50.93;64.62;;
71030;Laerm;63723;51.436;5.976;2023-04-06T00:20:03;52.68;50.63;65.17;;
71030;Laerm;63723;51.436;5.976;2023-04-06T00:20:13;54.29;50.83;65.60;;
71030;Laerm;63723;51.436;5.976;2023-04-06T00:20:23;53.86;50.64;66.03;;
71030;Laerm;63723;51.436;5.976;2023-04-06T00:20:34;54.62;50.78;68.14;;
71030;Laerm;63723;51.436;5.976;2023-04-06T00:20:44;52.88;50.40;64.85;;
71030;Laerm;63723;51.436;5.976;2023-04-06T00:20:55;54.08;50.65;66.25;;
71030;Laerm;63723;51.436;5.976;2023-04-06T00:21:05;54.18;50.80;65.55;;
71030;Laerm;63723;51.436;5.976;2023-04-06T00:21:16;53.50;50.75;66.44;;
71030;Laerm;63723;51.436;5.976;2023-04-06T00:21:26;53.61;50.78;67.30;;
71030;Laerm;63723;51.436;5.976;2023-04-06T00:21:37;54.22;50.76;67.66;;
71030;Laerm;63723;51.436;5.976;2023-04-06T00:21:47;54.77;50.90;67.07;;
71030;Laerm;63723;51.436;5.976;2023-04-06T00:21:57;53.53;50.97;65.16;;
71030;Laerm;63723;51.436;5.976;2023-04-06T00:22:08;53.00;50.80;66.12;;
71030;Laerm;63723;51.436;5.976;2023-04-06T00:22:18;53.99;50.72;68.30;;
71030;Laerm;63723;51.436;5.976;2023-04-06T00:22:28;52.75;50.93;65.77;;
71030;Laerm;63723;51.436;5.976;2023-04-06T00:22:38;53.74;50.50;66.25;;
71030;Laerm;63723;51.436;5.976;2023-04-06T00:22:49;53.83;50.80;65.86;;
71030;Laerm;63723;51.436;5.976;2023-04-06T00:22:59;53.44;50.67;67.20;;
71030;Laerm;63723;51.436;5.976;2023-04-06T00:23:09;54.24;50.87;66.95;;
71030;Laerm;63723;51.436;5.976;2023-04-06T00:23:20;54.01;50.88;65.59;;
71030;Laerm;63723;51.436;5.976;2023-04-06T00:23:30;53.60;50.62;66.65;;
71030;Laerm;63723;51.436;5.976;2023-04-06T00:23:41;53.70;50.65;65.39;;
71030;Laerm;63723;51.436;5.976;2023-04-06T00:23:51;54.34;50.77;67.30;;
71030;Laerm;63723;51.436;5.976;2023-04-06T00:24:01;54.32;50.79;66.72;;
71030;Laerm;63723;51.436;5.976;2023-04-06T00:24:13;53.74;50.87;66.89;;
71030;Laerm;63723;51.436;5.976;2023-04-06T00:24:24;55.10;50.57;67.01;;
71030;Laerm;63723;51.436;5.976;2023-04-06T00:24:34;53.86;50.80;66.26;;
71030;Laerm;63723;51.436;5.976;2023-04-06T00:24:45;53.41;50.79;66.35;;
71030;Laerm;63723;51.436;5.976;2023-04-06T00:24:55;53.01;50.60;66.76;;
71030;Laerm;63723;51.436;5.976;2023-04-06T00:25:05;53.78;50.39;65.81;;
71030;Laerm;63723;51.436;5.976;2023-04-06T00:25:15;54.11;50.56;66.72;;
71030;Laerm;63723;51.436;5.976;2023-04-06T00:25:26;53.65;50.47;66.60;;
71030;Laerm;63723;51.436;5.976;2023-04-06T00:25:36;54.93;50.97;66.67;;
71030;Laerm;63723;51.436;5.976;2023-04-06T00:25:47;54.10;50.81;68.31;;
71030;Laerm;63723;51.436;5.976;2023-04-06T00:25:57;54.04;50.57;66.92;;
71030;Laerm;63723;51.436;5.976;2023-04-06T00:26:08;54.09;50.67;67.13;;
71030;Laerm;63723;51.436;5.976;2023-04-06T00:26:18;52.99;50.58;66.94;;
71030;Laerm;63723;51.436;5.976;2023-04-06T00:26:28;54.06;50.53;67.94;;
71030;Laerm;63723;51.436;5.976;2023-04-06T00:26:39;52.71;50.84;64.49;;
71030;Laerm;63723;51.436;5.976;2023-04-06T00:26:49;53.45;50.51;66.26;;
71030;Laerm;63723;51.436;5.976;2023-04-06T00:26:59;53.41;50.53;66.33;;
71030;Laerm;63723;51.436;5.976;2023-04-06T00:27:09;53.26;50.14;66.02;;
71030;Laerm;63723;51.436;5.976;2023-04-06T00:27:20;52.44;50.27;65.42;;
71030;Laerm;63723;51.436;5.976;2023-04-06T00:27:30;51.72;50.10;65.09;;
71030;Laerm;63723;51.436;5.976;2023-04-06T00:27:40;52.86;50.18;64.52;;
71030;Laerm;63723;51.436;5.976;2023-04-06T00:27:51;52.38;50.57;66.10;;
71030;Laerm;63723;51.436;5.976;2023-04-06T00:28:01;53.66;50.35;66.55;;
71030;Laerm;63723;51.436;5.976;2023-04-06T00:28:11;53.24;50.56;65.11;;
71030;Laerm;63723;51.436;5.976;2023-04-06T00:28:22;52.60;50.45;66.76;;
71030;Laerm;63723;51.436;5.976;2023-04-06T00:28:36;52.97;50.79;66.06;;
71030;Laerm;63723;51.436;5.976;2023-04-06T00:28:46;52.83;50.31;66.21;;
71030;Laerm;63723;51.436;5.976;2023-04-06T00:28:57;53.73;50.58;66.35;;
71030;Laerm;63723;51.436;5.976;2023-04-06T00:29:08;53.87;50.83;66.42;;
71030;Laerm;63723;51.436;5.976;2023-04-06T00:29:19;53.36;51.01;66.64;;
71030;Laerm;63723;51.436;5.976;2023-04-06T00:29:29;54.09;50.86;67.81;;
71030;Laerm;63723;51.436;5.976;2023-04-06T00:29:40;54.89;50.77;68.50;;
71030;Laerm;63723;51.436;5.976;2023-04-06T00:29:50;52.49;50.98;65.54;;
71030;Laerm;63723;51.436;5.976;2023-04-06T00:30:01;53.28;51.03;66.58;;
71030;Laerm;63723;51.436;5.976;2023-04-06T00:30:11;53.25;50.98;65.90;;
71030;Laerm;63723;51.436;5.976;2023-04-06T00:30:21;53.54;50.84;66.40;;
71030;Laerm;63723;51.436;5.976;2023-04-06T00:30:31;54.27;50.78;67.17;;
71030;Laerm;63723;51.436;5.976;2023-04-06T00:30:42;53.88;50.61;65.84;;
71030;Laerm;63723;51.436;5.976;2023-04-06T00:30:52;54.20;50.80;65.17;;
71030;Laerm;63723;51.436;5.976;2023-04-06T00:31:04;53.49;51.10;65.79;;
71030;Laerm;63723;51.436;5.976;2023-04-06T00:31:14;53.39;50.90;65.38;;
71030;Laerm;63723;51.436;5.976;2023-04-06T00:31:24;54.65;50.99;66.28;;
71030;Laerm;63723;51.436;5.976;2023-04-06T00:31:34;54.86;51.18;66.78;;
71030;Laerm;63723;51.436;5.976;2023-04-06T00:31:45;54.65;50.69;66.24;;
71030;Laerm;63723;51.436;5.976;2023-04-06T00:31:55;53.06;50.19;64.55;;
71030;Laerm;63723;51.436;5.976;2023-04-06T00:32:05;53.46;50.82;64.86;;
71030;Laerm;63723;51.436;5.976;2023-04-06T00:32:16;54.01;51.05;64.90;;
71030;Laerm;63723;51.436;5.976;2023-04-06T00:32:26;54.21;50.57;66.46;;
71030;Laerm;63723;51.436;5.976;2023-04-06T00:32:36;53.57;50.47;64.26;;
71030;Laerm;63723;51.436;5.976;2023-04-06T00:32:46;53.96;51.01;65.27;;
71030;Laerm;63723;51.436;5.976;2023-04-06T00:32:56;52.65;50.79;64.79;;
71030;Laerm;63723;51.436;5.976;2023-04-06T00:33:07;53.60;50.70;64.95;;
71030;Laerm;63723;51.436;5.976;2023-04-06T00:33:17;54.45;50.89;65.27;;
71030;Laerm;63723;51.436;5.976;2023-04-06T00:33:27;53.90;50.45;67.00;;
71030;Laerm;63723;51.436;5.976;2023-04-06T00:33:37;53.36;50.53;66.54;;
71030;Laerm;63723;51.436;5.976;2023-04-06T00:33:48;53.80;50.72;66.58;;
71030;Laerm;63723;51.436;5.976;2023-04-06T00:33:58;53.55;50.42;65.17;;
71030;Laerm;63723;51.436;5.976;2023-04-06T00:34:09;53.94;50.86;66.70;;
71030;Laerm;63723;51.436;5.976;2023-04-06T00:34:20;53.29;50.80;66.22;;
71030;Laerm;63723;51.436;5.976;2023-04-06T00:34:30;52.35;50.86;63.20;;
71030;Laerm;63723;51.436;5.976;2023-04-06T00:34:40;53.96;50.61;66.41;;
71030;Laerm;63723;51.436;5.976;2023-04-06T00:34:50;53.55;50.70;66.10;;
71030;Laerm;63723;51.436;5.976;2023-04-06T00:35:04;53.26;50.71;64.39;;
71030;Laerm;63723;51.436;5.976;2023-04-06T00:35:14;53.25;50.41;66.30;;
71030;Laerm;63723;51.436;5.976;2023-04-06T00:35:25;52.98;49.98;63.97;;
71030;Laerm;63723;51.436;5.976;2023-04-06T00:35:36;52.22;50.35;63.80;;
71030;Laerm;63723;51.436;5.976;2023-04-06T00:35:46;54.12;50.80;66.01;;
71030;Laerm;63723;51.436;5.976;2023-04-06T00:35:56;54.66;50.69;66.50;;
71030;Laerm;63723;51.436;5.976;2023-04-06T00:36:06;53.12;50.79;64.06;;
71030;Laerm;63723;51.436;5.976;2023-04-06T00:36:17;53.33;50.70;66.24;;
71030;Laerm;63723;51.436;5.976;2023-04-06T00:36:27;53.86;50.87;66.11;;
71030;Laerm;63723;51.436;5.976;2023-04-06T00:36:37;53.72;51.07;66.52;;
71030;Laerm;63723;51.436;5.976;2023-04-06T00:36:47;53.68;50.73;66.03;;
71030;Laerm;63723;51.436;5.976;2023-04-06T00:36:58;53.59;50.51;66.08;;
71030;Laerm;63723;51.436;5.976;2023-04-06T00:37:08;53.96;50.87;67.88;;
71030;Laerm;63723;51.436;5.976;2023-04-06T00:37:18;53.81;50.57;65.42;;
71030;Laerm;63723;51.436;5.976;2023-04-06T00:37:29;53.71;50.68;65.03;;
71030;Laerm;63723;51.436;5.976;2023-04-06T00:37:40;53.18;50.69;66.58;;
71030;Laerm;63723;51.436;5.976;2023-04-06T00:37:50;53.20;50.89;66.27;;
71030;Laerm;63723;51.436;5.976;2023-04-06T00:38:00;52.72;50.70;63.84;;
71030;Laerm;63723;51.436;5.976;2023-04-06T00:38:11;53.71;50.70;65.29;;
71030;Laerm;63723;51.436;5.976;2023-04-06T00:38:21;52.90;50.42;66.02;;
71030;Laerm;63723;51.436;5.976;2023-04-06T00:38:32;52.45;50.56;64.67;;
71030;Laerm;63723;51.436;5.976;2023-04-06T00:38:42;52.96;50.48;64.58;;
71030;Laerm;63723;51.436;5.976;2023-04-06T00:38:52;53.42;50.56;66.02;;
71030;Laerm;63723;51.436;5.976;2023-04-06T00:39:03;53.73;50.61;65.13;;
71030;Laerm;63723;51.436;5.976;2023-04-06T00:39:13;53.68;50.13;65.85;;
71030;Laerm;63723;51.436;5.976;2023-04-06T00:39:23;52.74;50.25;67.26;;
71030;Laerm;63723;51.436;5.976;2023-04-06T00:39:33;53.32;49.89;65.08;;
71030;Laerm;63723;51.436;5.976;2023-04-06T00:39:44;51.92;49.61;65.55;;
71030;Laerm;63723;51.436;5.976;2023-04-06T00:39:54;52.29;50.12;66.36;;
71030;Laerm;63723;51.436;5.976;2023-04-06T00:40:04;52.16;49.96;63.40;;
71030;Laerm;63723;51.436;5.976;2023-04-06T00:40:15;52.40;50.17;64.48;;
71030;Laerm;63723;51.436;5.976;2023-04-06T00:40:26;52.93;50.10;65.91;;
71030;Laerm;63723;51.436;5.976;2023-04-06T00:40:38;52.05;50.13;62.89;;
71030;Laerm;63723;51.436;5.976;2023-04-06T00:40:49;52.76;49.94;66.23;;
71030;Laerm;63723;51.436;5.976;2023-04-06T00:41:00;52.26;49.84;64.72;;
71030;Laerm;63723;51.436;5.976;2023-04-06T00:41:10;51.77;50.07;63.49;;
71030;Laerm;63723;51.436;5.976;2023-04-06T00:41:21;53.32;49.99;67.21;;
71030;Laerm;63723;51.436;5.976;2023-04-06T00:41:31;52.98;49.99;66.96;;
71030;Laerm;63723;51.436;5.976;2023-04-06T00:41:44;53.19;50.25;65.64;;
71030;Laerm;63723;51.436;5.976;2023-04-06T00:41:56;52.56;50.21;64.43;;
71030;Laerm;63723;51.436;5.976;2023-04-06T00:42:13;52.84;50.21;65.28;;
71030;Laerm;63723;51.436;5.976;2023-04-06T00:42:24;52.66;50.04;66.87;;
71030;Laerm;63723;51.436;5.976;2023-04-06T00:42:37;52.49;50.04;65.28;;
71030;Laerm;63723;51.436;5.976;2023-04-06T00:42:48;53.14;49.71;65.53;;
71030;Laerm;63723;51.436;5.976;2023-04-06T00:42:58;52.45;50.23;65.76;;
71030;Laerm;63723;51.436;5.976;2023-04-06T00:43:08;53.80;50.34;65.92;;
71030;Laerm;63723;51.436;5.976;2023-04-06T00:43:19;52.25;50.29;64.86;;
71030;Laerm;63723;51.436;5.976;2023-04-06T00:43:29;53.33;50.25;66.48;;
71030;Laerm;63723;51.436;5.976;2023-04-06T00:43:39;51.73;50.05;64.46;;
71030;Laerm;63723;51.436;5.976;2023-04-06T00:43:50;52.50;50.15;65.10;;
71030;Laerm;63723;51.436;5.976;2023-04-06T00:44:00;53.40;49.74;65.23;;
71030;Laerm;63723;51.436;5.976;2023-04-06T00:44:11;52.23;49.92;63.77;;
71030;Laerm;63723;51.436;5.976;2023-04-06T00:44:21;52.80;50.26;64.70;;
71030;Laerm;63723;51.436;5.976;2023-04-06T00:44:31;51.81;49.95;64.52;;
71030;Laerm;63723;51.436;5.976;2023-04-06T00:44:41;52.99;49.87;65.14;;
71030;Laerm;63723;51.436;5.976;2023-04-06T00:44:55;52.69;50.19;66.27;;
71030;Laerm;63723;51.436;5.976;2023-04-06T00:45:06;52.83;50.32;66.64;;
71030;Laerm;63723;51.436;5.976;2023-04-06T00:45:17;52.87;50.40;64.21;;
71030;Laerm;63723;51.436;5.976;2023-04-06T00:45:27;53.32;50.40;66.33;;
71030;Laerm;63723;51.436;5.976;2023-04-06T00:45:38;52.27;50.25;64.21;;
71030;Laerm;63723;51.436;5.976;2023-04-06T00:45:49;52.74;50.06;65.86;;
71030;Laerm;63723;51.436;5.976;2023-04-06T00:45:59;52.86;49.94;65.24;;
71030;Laerm;63723;51.436;5.976;2023-04-06T00:46:09;52.90;50.26;66.99;;
71030;Laerm;63723;51.436;5.976;2023-04-06T00:46:20;52.64;50.27;65.84;;
71030;Laerm;63723;51.436;5.976;2023-04-06T00:46:30;52.72;50.26;66.07;;
71030;Laerm;63723;51.436;5.976;2023-04-06T00:46:40;51.77;50.24;64.25;;
71030;Laerm;63723;51.436;5.976;2023-04-06T00:46:50;53.07;50.02;65.91;;
71030;Laerm;63723;51.436;5.976;2023-04-06T00:47:01;52.23;50.39;65.89;;
71030;Laerm;63723;51.436;5.976;2023-04-06T00:47:11;52.81;50.25;65.90;;
71030;Laerm;63723;51.436;5.976;2023-04-06T00:47:22;52.64;50.47;65.51;;
71030;Laerm;63723;51.436;5.976;2023-04-06T00:47:32;52.51;49.87;64.81;;
71030;Laerm;63723;51.436;5.976;2023-04-06T00:47:43;53.16;50.40;64.08;;
71030;Laerm;63723;51.436;5.976;2023-04-06T00:47:53;53.15;50.50;64.99;;
71030;Laerm;63723;51.436;5.976;2023-04-06T00:48:03;53.87;50.70;66.09;;
71030;Laerm;63723;51.436;5.976;2023-04-06T00:48:15;52.81;49.92;65.06;;
71030;Laerm;63723;51.436;5.976;2023-04-06T00:48:26;53.27;50.33;65.87;;
71030;Laerm;63723;51.436;5.976;2023-04-06T00:48:36;54.90;50.58;66.60;;
71030;Laerm;63723;51.436;5.976;2023-04-06T00:48:46;53.44;50.41;66.66;;
71030;Laerm;63723;51.436;5.976;2023-04-06T00:48:57;52.37;50.16;65.17;;
71030;Laerm;63723;51.436;5.976;2023-04-06T00:49:07;53.40;50.64;65.72;;
71030;Laerm;63723;51.436;5.976;2023-04-06T00:49:17;53.04;50.28;65.87;;
71030;Laerm;63723;51.436;5.976;2023-04-06T00:49:28;55.21;50.44;67.39;;
71030;Laerm;63723;51.436;5.976;2023-04-06T00:49:38;52.68;50.40;65.63;;
71030;Laerm;63723;51.436;5.976;2023-04-06T00:49:48;52.96;50.30;64.43;;
71030;Laerm;63723;51.436;5.976;2023-04-06T00:49:58;52.97;50.10;65.10;;
71030;Laerm;63723;51.436;5.976;2023-04-06T00:50:09;53.02;49.88;65.20;;
71030;Laerm;63723;51.436;5.976;2023-04-06T00:50:19;53.49;50.26;65.40;;
71030;Laerm;63723;51.436;5.976;2023-04-06T00:50:29;53.54;49.99;65.73;;
71030;Laerm;63723;51.436;5.976;2023-04-06T00:50:40;53.25;50.13;65.56;;
71030;Laerm;63723;51.436;5.976;2023-04-06T00:50:50;53.52;50.12;65.66;;
71030;Laerm;63723;51.436;5.976;2023-04-06T00:51:01;53.47;50.11;65.78;;
71030;Laerm;63723;51.436;5.976;2023-04-06T00:51:11;53.02;49.99;66.27;;
71030;Laerm;63723;51.436;5.976;2023-04-06T00:51:22;51.84;50.31;63.39;;
71030;Laerm;63723;51.436;5.976;2023-04-06T00:51:32;53.41;50.21;67.42;;
71030;Laerm;63723;51.436;5.976;2023-04-06T00:51:42;54.07;50.62;66.81;;
71030;Laerm;63723;51.436;5.976;2023-04-06T00:51:52;53.24;50.31;65.87;;
71030;Laerm;63723;51.436;5.976;2023-04-06T00:52:03;53.51;50.01;68.36;;
71030;Laerm;63723;51.436;5.976;2023-04-06T00:52:13;52.79;49.80;65.60;;
71030;Laerm;63723;51.436;5.976;2023-04-06T00:52:23;52.86;50.25;65.91;;
71030;Laerm;63723;51.436;5.976;2023-04-06T00:52:34;53.21;50.36;66.11;;
71030;Laerm;63723;51.436;5.976;2023-04-06T00:52:44;52.61;50.57;66.27;;
71030;Laerm;63723;51.436;5.976;2023-04-06T00:52:55;52.34;50.57;65.71;;
71030;Laerm;63723;51.436;5.976;2023-04-06T00:53:05;53.67;50.35;66.29;;
71030;Laerm;63723;51.436;5.976;2023-04-06T00:53:15;53.16;50.46;66.28;;
71030;Laerm;63723;51.436;5.976;2023-04-06T00:53:26;52.47;49.89;64.50;;
71030;Laerm;63723;51.436;5.976;2023-04-06T00:53:36;52.54;50.43;65.52;;
71030;Laerm;63723;51.436;5.976;2023-04-06T00:53:46;52.96;50.15;64.75;;
71030;Laerm;63723;51.436;5.976;2023-04-06T00:53:57;53.22;50.56;65.34;;
71030;Laerm;63723;51.436;5.976;2023-04-06T00:54:07;52.76;50.38;65.05;;
71030;Laerm;63723;51.436;5.976;2023-04-06T00:54:17;53.32;50.46;66.16;;
71030;Laerm;63723;51.436;5.976;2023-04-06T00:54:28;53.15;50.17;67.67;;
71030;Laerm;63723;51.436;5.976;2023-04-06T00:54:38;54.60;50.40;65.75;;
71030;Laerm;63723;51.436;5.976;2023-04-06T00:54:49;52.80;50.32;65.59;;
71030;Laerm;63723;51.436;5.976;2023-04-06T00:55:00;54.00;50.42;65.41;;
71030;Laerm;63723;51.436;5.976;2023-04-06T00:55:10;53.28;50.77;64.37;;
71030;Laerm;63723;51.436;5.976;2023-04-06T00:55:21;53.29;51.15;65.73;;
71030;Laerm;63723;51.436;5.976;2023-04-06T00:55:31;54.10;51.35;66.23;;
71030;Laerm;63723;51.436;5.976;2023-04-06T00:55:41;53.98;50.87;65.20;;
71030;Laerm;63723;51.436;5.976;2023-04-06T00:55:52;54.00;51.19;65.01;;
71030;Laerm;63723;51.436;5.976;2023-04-06T00:56:02;53.69;50.85;65.44;;
71030;Laerm;63723;51.436;5.976;2023-04-06T00:56:12;53.72;50.92;65.34;;
71030;Laerm;63723;51.436;5.976;2023-04-06T00:56:22;54.36;51.16;66.58;;
71030;Laerm;63723;51.436;5.976;2023-04-06T00:56:33;54.22;50.71;66.71;;
71030;Laerm;63723;51.436;5.976;2023-04-06T00:56:44;54.74;51.01;66.46;;
71030;Laerm;63723;51.436;5.976;2023-04-06T00:56:54;54.05;50.17;64.89;;
71030;Laerm;63723;51.436;5.976;2023-04-06T00:57:05;53.61;50.96;66.52;;
71030;Laerm;63723;51.436;5.976;2023-04-06T00:57:15;54.26;51.03;66.24;;
71030;Laerm;63723;51.436;5.976;2023-04-06T00:57:26;54.57;51.07;66.30;;
71030;Laerm;63723;51.436;5.976;2023-04-06T00:57:36;53.87;50.81;66.18;;
71030;Laerm;63723;51.436;5.976;2023-04-06T00:57:46;54.55;51.05;68.07;;
71030;Laerm;63723;51.436;5.976;2023-04-06T00:57:58;53.50;51.18;65.15;;
71030;Laerm;63723;51.436;5.976;2023-04-06T00:58:09;54.20;51.11;65.36;;
71030;Laerm;63723;51.436;5.976;2023-04-06T00:58:19;53.88;50.81;65.33;;
71030;Laerm;63723;51.436;5.976;2023-04-06T00:58:30;54.15;50.83;66.37;;
71030;Laerm;63723;51.436;5.976;2023-04-06T00:58:40;54.56;50.70;67.16;;